createdAt,value
2023-02-02T00:01:00.207Z,64.73
2023-02-02T00:03:26.769Z,64.55
2023-02-02T00:05:54.439Z,64.71
2023-02-02T00:08:22.032Z,64.59
2023-02-02T00:10:50.671Z,64.04
2023-02-02T00:13:18.170Z,64.18
2023-02-02T00:15:44.886Z,63.70
2023-02-02T00:18:11.537Z,63.62
2023-02-02T00:20:38.133Z,63.52
2023-02-02T00:23:04.972Z,63.56
2023-02-02T00:25:32.274Z,63.58
2023-02-02T00:27:58.938Z,63.95
2023-02-02T00:30:25.649Z,64.01
2023-02-02T00:32:53.305Z,63.95
2023-02-02T00:35:20.998Z,64.02
2023-02-02T00:37:47.809Z,64.20
2023-02-02T00:40:14.644Z,64.13
2023-02-02T00:42:43.621Z,64.05
2023-02-02T00:45:16.593Z,64.18
2023-02-02T00:47:48.008Z,64.15
2023-02-02T00:50:21.062Z,64.20
2023-02-02T00:52:49.284Z,64.33
2023-02-02T00:55:17.624Z,64.46
2023-02-02T00:57:46.277Z,64.90
2023-02-02T01:00:16.762Z,64.80
2023-02-02T01:02:44.118Z,64.66
2023-02-02T01:05:14.064Z,65.10
2023-02-02T01:07:40.767Z,65.83
2023-02-02T01:10:11.595Z,65.72
2023-02-02T01:12:38.342Z,65.80
2023-02-02T01:15:06.166Z,65.71
2023-02-02T01:17:33.219Z,65.13
2023-02-02T01:19:59.934Z,65.00
2023-02-02T01:22:26.689Z,64.96
2023-02-02T01:24:53.367Z,64.97
2023-02-02T01:27:20.017Z,65.19
2023-02-02T01:29:46.733Z,64.95
2023-02-02T01:32:13.392Z,65.08
2023-02-02T01:34:41.915Z,64.85
2023-02-02T01:37:09.700Z,64.73
2023-02-02T01:39:36.998Z,64.70
2023-02-02T01:42:11.279Z,64.93
2023-02-02T01:45:13.309Z,65.06
2023-02-02T01:47:46.350Z,64.82
2023-02-02T01:50:16.736Z,64.82
2023-02-02T01:52:48.475Z,64.74
2023-02-02T01:55:18.817Z,64.74
2023-02-02T01:57:53.242Z,64.65
2023-02-02T02:00:27.188Z,64.93
2023-02-02T02:03:02.330Z,65.26
2023-02-02T02:05:34.461Z,65.73
2023-02-02T02:08:08.361Z,65.55
2023-02-02T02:10:35.227Z,65.25
2023-02-02T02:13:02.431Z,65.82
2023-02-02T02:15:57.391Z,66.03
2023-02-02T02:18:50.318Z,66.23
2023-02-02T02:22:09.808Z,66.33
2023-02-02T02:25:30.951Z,66.10
2023-02-02T02:28:01.061Z,66.13
2023-02-02T02:30:31.017Z,65.89
2023-02-02T02:33:16.666Z,65.72
2023-02-02T02:35:59.519Z,65.25
2023-02-02T02:38:50.228Z,65.06
2023-02-02T02:41:21.898Z,64.81
2023-02-02T02:44:02.484Z,64.58
2023-02-02T02:46:29.554Z,64.50
2023-02-02T02:49:01.137Z,64.63
2023-02-02T02:51:53.537Z,64.45
2023-02-02T02:54:47.216Z,64.96
2023-02-02T02:57:35.916Z,64.88
2023-02-02T03:00:41.726Z,65.20
2023-02-02T03:03:26.717Z,65.28
2023-02-02T03:06:10.990Z,64.99
2023-02-02T03:08:40.948Z,64.95
2023-02-02T03:11:10.824Z,64.84
2023-02-02T03:13:37.737Z,64.85
2023-02-02T03:16:04.681Z,64.79
2023-02-02T03:18:33.311Z,65.14
2023-02-02T03:21:00.151Z,64.86
2023-02-02T03:23:27.977Z,64.78
2023-02-02T03:25:55.615Z,64.46
2023-02-02T03:28:24.197Z,64.77
2023-02-02T03:30:52.434Z,64.95
2023-02-02T03:33:19.733Z,65.00
2023-02-02T03:35:46.532Z,65.34
2023-02-02T03:38:13.169Z,65.38
2023-02-02T03:40:40.850Z,65.49
2023-02-02T03:43:07.714Z,65.58
2023-02-02T03:45:37.438Z,65.14
2023-02-02T03:48:05.876Z,65.00
2023-02-02T03:50:33.417Z,64.82
2023-02-02T03:53:00.398Z,64.61
2023-02-02T03:55:27.050Z,64.34
2023-02-02T03:57:53.689Z,64.17
2023-02-02T04:00:20.778Z,64.16
2023-02-02T04:02:47.484Z,63.92
2023-02-02T04:05:14.271Z,63.75
2023-02-02T04:07:40.968Z,63.91
2023-02-02T04:10:07.999Z,63.88
2023-02-02T04:12:34.588Z,64.09
2023-02-02T04:15:01.195Z,64.07
2023-02-02T04:17:27.831Z,64.13
2023-02-02T04:19:58.195Z,64.18
2023-02-02T04:22:26.579Z,64.07
2023-02-02T04:24:53.528Z,64.03
2023-02-02T04:27:20.231Z,63.92
2023-02-02T04:29:47.047Z,63.90
2023-02-02T04:32:18.168Z,63.98
2023-02-02T04:34:45.086Z,63.83
2023-02-02T04:37:12.219Z,63.74
2023-02-02T04:39:38.953Z,64.07
2023-02-02T04:42:05.871Z,64.35
2023-02-02T04:44:32.570Z,64.70
2023-02-02T04:46:59.216Z,64.73
2023-02-02T04:49:25.983Z,64.59
2023-02-02T04:51:52.626Z,64.28
2023-02-02T04:54:19.374Z,64.06
2023-02-02T04:56:45.985Z,64.06
2023-02-02T04:59:12.588Z,63.84
2023-02-02T05:01:39.586Z,63.72
2023-02-02T05:04:06.343Z,64.21
2023-02-02T05:06:33.143Z,64.22
2023-02-02T05:09:00.136Z,64.20
2023-02-02T05:11:27.194Z,64.56
2023-02-02T05:13:55.210Z,64.69
2023-02-02T05:16:24.002Z,65.14
2023-02-02T05:18:54.071Z,65.17
2023-02-02T05:21:21.299Z,65.28
2023-02-02T05:23:48.440Z,65.61
2023-02-02T05:26:19.710Z,65.45
2023-02-02T05:28:46.551Z,65.33
2023-02-02T05:31:13.322Z,64.82
2023-02-02T05:33:40.112Z,64.21
2023-02-02T05:36:07.603Z,64.23
2023-02-02T05:38:35.107Z,63.89
2023-02-02T05:41:02.395Z,63.60
2023-02-02T05:43:30.775Z,63.73
2023-02-02T05:45:58.066Z,63.67
2023-02-02T05:48:25.083Z,63.56
2023-02-02T05:51:25.673Z,63.77
2023-02-02T05:53:52.341Z,63.61
2023-02-02T05:56:19.156Z,64.06
2023-02-02T05:58:48.181Z,64.43
2023-02-02T06:01:14.750Z,64.34
2023-02-02T06:03:41.473Z,64.75
2023-02-02T06:06:08.582Z,64.34
2023-02-02T06:08:36.336Z,64.19
2023-02-02T06:11:14.221Z,64.08
2023-02-02T06:13:40.839Z,64.36
2023-02-02T06:16:07.940Z,63.96
2023-02-02T06:18:35.707Z,63.72
2023-02-02T06:21:06.171Z,63.62
2023-02-02T06:23:34.192Z,63.62
2023-02-02T06:26:03.489Z,63.38
2023-02-02T06:28:33.060Z,63.22
2023-02-02T06:31:05.096Z,63.34
2023-02-02T06:33:31.877Z,63.52
2023-02-02T06:36:04.055Z,63.65
2023-02-02T06:38:30.822Z,63.59
2023-02-02T06:41:01.583Z,63.20
2023-02-02T06:43:29.776Z,63.32
2023-02-02T06:46:00.179Z,63.17
2023-02-02T06:48:27.793Z,62.66
2023-02-02T06:50:54.566Z,62.65
2023-02-02T06:53:24.018Z,62.69
2023-02-02T06:55:58.060Z,62.61
2023-02-02T06:58:24.684Z,62.61
2023-02-02T07:00:51.273Z,62.25
2023-02-02T07:03:19.027Z,62.18
2023-02-02T07:05:45.668Z,62.38
2023-02-02T07:08:12.346Z,62.03
2023-02-02T07:11:14.601Z,62.09
2023-02-02T07:13:26.508Z,62.11
2023-02-02T07:15:54.746Z,62.00
2023-02-02T07:18:22.620Z,62.16
2023-02-02T07:20:49.214Z,62.17
2023-02-02T07:23:15.998Z,62.36
2023-02-02T07:25:43.981Z,62.23
2023-02-02T07:28:10.932Z,61.84
2023-02-02T07:30:37.632Z,61.67
2023-02-02T07:33:04.271Z,61.52
2023-02-02T07:35:31.037Z,61.57
2023-02-02T07:37:57.932Z,61.38
2023-02-02T07:40:24.557Z,61.25
2023-02-02T07:42:51.182Z,61.30
2023-02-02T07:45:26.769Z,61.18
2023-02-02T07:47:58.636Z,61.10
2023-02-02T07:50:26.741Z,61.18
2023-02-02T07:52:53.826Z,61.32
2023-02-02T07:55:20.995Z,61.41
2023-02-02T07:57:47.655Z,61.86
2023-02-02T08:00:14.684Z,61.66
2023-02-02T08:02:41.379Z,61.77
2023-02-02T08:05:08.390Z,62.10
2023-02-02T08:07:35.645Z,61.95
2023-02-02T08:10:03.178Z,62.39
2023-02-02T08:12:29.758Z,62.48
2023-02-02T08:14:56.403Z,62.14
2023-02-02T08:17:23.687Z,62.21
2023-02-02T08:19:50.333Z,62.30
2023-02-02T08:22:18.384Z,62.56
2023-02-02T08:24:46.847Z,62.85
2023-02-02T08:27:15.566Z,63.01
2023-02-02T08:29:42.534Z,62.99
2023-02-02T08:32:09.323Z,62.88
2023-02-02T08:34:37.052Z,62.96
2023-02-02T08:37:04.505Z,62.74
2023-02-02T08:39:31.183Z,62.82
2023-02-02T08:41:58.348Z,62.53
2023-02-02T08:44:26.411Z,62.65
2023-02-02T08:47:06.387Z,62.41
2023-02-02T08:49:33.538Z,62.24
2023-02-02T08:52:02.998Z,61.71
2023-02-02T08:54:29.719Z,61.75
2023-02-02T08:56:56.780Z,61.31
2023-02-02T08:59:23.370Z,60.69
2023-02-02T09:01:50.166Z,60.53
2023-02-02T09:04:16.875Z,59.90
2023-02-02T09:06:44.784Z,59.51
2023-02-02T09:09:14.929Z,59.01
2023-02-02T09:11:42.562Z,58.82
2023-02-02T09:14:12.066Z,58.47
2023-02-02T09:16:39.798Z,58.22
2023-02-02T09:19:07.322Z,57.73
2023-02-02T09:21:37.056Z,57.24
2023-02-02T09:24:12.891Z,57.49
2023-02-02T09:26:40.677Z,56.83
2023-02-02T09:29:12.436Z,56.42
2023-02-02T09:31:39.508Z,56.12
2023-02-02T09:34:10.101Z,55.83
2023-02-02T09:36:38.078Z,55.74
2023-02-02T09:39:06.127Z,55.67
2023-02-02T09:42:14.782Z,54.91
2023-02-02T09:44:50.279Z,53.45
2023-02-02T09:47:25.854Z,53.28
2023-02-02T09:50:23.468Z,51.80
2023-02-02T09:53:24.795Z,51.89
2023-02-02T09:55:59.127Z,51.42
2023-02-02T09:58:34.616Z,51.78
2023-02-02T10:01:10.463Z,51.89
2023-02-02T10:04:05.646Z,50.99
2023-02-02T10:06:35.163Z,50.74
2023-02-02T10:09:16.354Z,51.76
2023-02-02T10:11:58.597Z,51.95
2023-02-02T10:14:39.390Z,51.17
2023-02-02T10:17:32.175Z,50.95
2023-02-02T10:20:06.055Z,50.65
2023-02-02T10:22:34.456Z,50.39
2023-02-02T10:25:01.199Z,50.51
2023-02-02T10:27:59.424Z,50.02
2023-02-02T10:30:51.972Z,49.36
2023-02-02T10:33:33.413Z,49.21
2023-02-02T10:37:04.696Z,49.12
2023-02-02T10:39:40.342Z,48.50
2023-02-02T10:42:42.977Z,46.26
2023-02-02T10:45:19.028Z,47.08
2023-02-02T10:47:45.950Z,46.22
2023-02-02T10:50:12.612Z,47.31
2023-02-02T10:52:45.225Z,47.55
2023-02-02T10:55:15.744Z,47.47
2023-02-02T10:58:13.611Z,46.26
2023-02-02T11:00:52.580Z,46.08
2023-02-02T11:03:23.127Z,46.28
2023-02-02T11:06:08.508Z,46.31
2023-02-02T11:08:41.475Z,45.17
2023-02-02T11:11:21.705Z,44.95
2023-02-02T11:13:59.314Z,45.17
2023-02-02T11:16:41.900Z,43.72
2023-02-02T11:19:20.089Z,43.97
2023-02-02T11:21:56.551Z,44.40
2023-02-02T11:24:47.144Z,43.68
2023-02-02T11:27:13.798Z,44.08
2023-02-02T11:29:40.507Z,44.60
2023-02-02T11:32:19.905Z,43.71
2023-02-02T11:34:47.146Z,42.90
2023-02-02T11:37:20.223Z,43.76
2023-02-02T11:39:47.170Z,43.97
2023-02-02T11:42:24.572Z,44.65
2023-02-02T11:44:57.830Z,44.34
2023-02-02T11:47:33.276Z,45.03
2023-02-02T11:50:02.610Z,45.44
2023-02-02T11:52:33.125Z,45.20
2023-02-02T11:55:02.593Z,45.49
2023-02-02T11:57:30.727Z,45.33
2023-02-02T12:00:06.645Z,45.88
2023-02-02T12:02:34.525Z,45.98
2023-02-02T12:05:10.336Z,46.07
2023-02-02T12:07:37.692Z,45.80
2023-02-02T12:10:19.557Z,45.43
2023-02-02T12:13:00.384Z,45.79
2023-02-02T12:15:38.214Z,45.47
2023-02-02T12:18:43.643Z,45.59
2023-02-02T12:21:19.867Z,45.64
2023-02-02T12:23:49.274Z,45.75
2023-02-02T12:26:34.466Z,45.13
2023-02-02T12:29:06.113Z,44.74
2023-02-02T12:31:55.916Z,44.93
2023-02-02T12:34:28.860Z,44.51
2023-02-02T12:37:07.540Z,43.79
2023-02-02T12:39:58.825Z,44.19
2023-02-02T12:42:57.918Z,43.57
2023-02-02T12:45:47.743Z,43.70
2023-02-02T12:48:33.037Z,43.09
2023-02-02T12:51:33.144Z,42.76
2023-02-02T12:54:33.944Z,41.80
2023-02-02T12:57:36.018Z,41.84
2023-02-02T13:00:18.027Z,42.91
2023-02-02T13:03:03.631Z,43.29
2023-02-02T13:05:48.397Z,42.00
2023-02-02T13:08:21.444Z,41.83
2023-02-02T13:10:55.123Z,41.52
2023-02-02T13:13:31.648Z,41.41
2023-02-02T13:16:11.796Z,39.34
2023-02-02T13:18:45.257Z,40.08
2023-02-02T13:21:16.972Z,39.56
2023-02-02T13:23:51.319Z,39.62
2023-02-02T13:26:40.829Z,39.57
2023-02-02T13:29:11.433Z,39.83
2023-02-02T13:31:48.587Z,39.99
2023-02-02T13:34:39.435Z,38.61
2023-02-02T13:37:23.691Z,39.44
2023-02-02T13:39:58.635Z,39.42
2023-02-02T13:42:38.001Z,39.87
2023-02-02T13:45:46.724Z,39.83
2023-02-02T13:48:34.633Z,39.92
2023-02-02T13:51:19.664Z,39.89
2023-02-02T13:54:04.336Z,39.56
2023-02-02T13:56:38.803Z,39.60
2023-02-02T13:59:46.993Z,39.35
2023-02-02T14:02:29.601Z,38.94
2023-02-02T14:04:59.877Z,39.23
2023-02-02T14:07:32.709Z,39.66
2023-02-02T14:09:59.686Z,39.94
2023-02-02T14:12:32.082Z,40.42
2023-02-02T14:14:59.102Z,40.65
2023-02-02T14:17:25.577Z,41.06
2023-02-02T14:20:01.351Z,40.91
2023-02-02T14:22:48.290Z,40.97
2023-02-02T14:25:33.528Z,41.04
2023-02-02T14:28:05.087Z,41.08
2023-02-02T14:30:35.514Z,40.72
2023-02-02T14:33:20.463Z,40.75
2023-02-02T14:35:47.208Z,40.91
2023-02-02T14:38:39.523Z,39.81
2023-02-02T14:41:13.697Z,40.13
2023-02-02T14:43:49.875Z,40.71
2023-02-02T14:46:21.860Z,41.37
2023-02-02T14:49:07.092Z,41.56
2023-02-02T14:52:05.376Z,41.82
2023-02-02T14:54:37.366Z,43.19
2023-02-02T14:57:23.763Z,44.27
2023-02-02T14:59:52.088Z,45.30
2023-02-02T15:02:23.368Z,45.47
2023-02-02T15:04:50.333Z,45.93
2023-02-02T15:07:22.729Z,46.29
2023-02-02T15:09:50.721Z,46.63
2023-02-02T15:12:34.150Z,47.04
2023-02-02T15:15:25.643Z,47.44
2023-02-02T15:18:33.613Z,47.90
2023-02-02T15:21:05.277Z,48.44
2023-02-02T15:23:39.081Z,48.56
2023-02-02T15:26:27.434Z,48.84
2023-02-02T15:29:08.238Z,49.04
2023-02-02T15:31:44.082Z,49.10
2023-02-02T15:34:25.760Z,49.33
2023-02-02T15:36:57.382Z,49.75
2023-02-02T15:39:31.686Z,49.80
2023-02-02T15:42:18.957Z,50.04
2023-02-02T15:44:45.740Z,50.35
2023-02-02T15:47:16.944Z,50.56
2023-02-02T15:49:45.455Z,50.78
2023-02-02T15:52:28.292Z,50.96
2023-02-02T15:54:57.816Z,51.37
2023-02-02T15:57:34.193Z,51.43
2023-02-02T16:00:23.515Z,51.55
2023-02-02T16:03:09.031Z,51.98
2023-02-02T16:05:36.051Z,52.35
2023-02-02T16:08:06.699Z,52.21
2023-02-02T16:10:34.616Z,52.44
2023-02-02T16:13:02.336Z,52.57
2023-02-02T16:15:31.798Z,52.70
2023-02-02T16:18:13.310Z,52.59
2023-02-02T16:20:41.482Z,52.62
2023-02-02T16:23:15.351Z,52.55
2023-02-02T16:25:50.777Z,52.46
2023-02-02T16:28:20.140Z,52.45
2023-02-02T16:30:48.165Z,52.43
2023-02-02T16:33:28.304Z,52.26
2023-02-02T16:35:55.686Z,52.06
2023-02-02T16:38:33.219Z,52.02
2023-02-02T16:41:07.493Z,52.20
2023-02-02T16:43:35.980Z,52.11
2023-02-02T16:46:08.702Z,52.12
2023-02-02T16:48:55.496Z,51.74
2023-02-02T16:51:34.030Z,51.62
2023-02-02T16:54:06.914Z,51.59
2023-02-02T16:56:40.783Z,51.48
2023-02-02T16:59:24.027Z,51.29
2023-02-02T17:02:04.880Z,51.26
2023-02-02T17:04:34.145Z,51.23
2023-02-02T17:07:13.331Z,51.14
2023-02-02T17:09:45.219Z,51.17
2023-02-02T17:12:34.796Z,51.15
2023-02-02T17:15:24.875Z,50.86
2023-02-02T17:17:51.906Z,50.86
2023-02-02T17:20:19.473Z,50.81
2023-02-02T17:22:53.188Z,50.66
2023-02-02T17:25:27.709Z,50.67
2023-02-02T17:27:55.881Z,50.73
2023-02-02T17:30:22.984Z,50.58
2023-02-02T17:32:49.524Z,50.28
2023-02-02T17:35:19.813Z,50.33
2023-02-02T17:37:46.540Z,50.30
2023-02-02T17:40:16.489Z,50.68
2023-02-02T17:42:45.582Z,50.79
2023-02-02T17:45:18.927Z,51.27
2023-02-02T17:47:45.538Z,51.87
2023-02-02T17:50:12.188Z,51.66
2023-02-02T17:52:39.159Z,51.86
2023-02-02T17:55:29.457Z,51.86
2023-02-02T17:57:56.126Z,52.07
2023-02-02T18:00:25.142Z,51.95
2023-02-02T18:02:56.948Z,51.88
2023-02-02T18:05:24.250Z,51.71
2023-02-02T18:07:52.339Z,51.59
2023-02-02T18:10:19.497Z,51.41
2023-02-02T18:12:46.091Z,51.24
2023-02-02T18:15:14.776Z,51.35
2023-02-02T18:17:42.005Z,51.20
2023-02-02T18:20:13.466Z,51.39
2023-02-02T18:22:40.033Z,51.39
2023-02-02T18:25:06.917Z,51.38
2023-02-02T18:27:33.502Z,51.28
2023-02-02T18:30:00.045Z,51.09
2023-02-02T18:32:26.705Z,51.17
2023-02-02T18:34:55.821Z,51.28
2023-02-02T18:37:24.171Z,51.40
2023-02-02T18:39:51.822Z,51.40
2023-02-02T18:42:18.363Z,51.14
2023-02-02T18:44:45.056Z,51.08
2023-02-02T18:47:11.610Z,51.25
2023-02-02T18:49:38.327Z,51.31
2023-02-02T18:52:05.127Z,51.30
2023-02-02T18:54:33.985Z,51.15
2023-02-02T18:57:00.644Z,51.11
2023-02-02T18:59:28.555Z,51.04
2023-02-02T19:01:55.638Z,50.81
2023-02-02T19:04:22.302Z,51.00
2023-02-02T19:07:07.466Z,51.13
2023-02-02T19:09:34.759Z,50.82
2023-02-02T19:12:01.964Z,50.75
2023-02-02T19:14:37.570Z,50.79
2023-02-02T19:17:24.524Z,50.87
2023-02-02T19:19:51.323Z,51.16
2023-02-02T19:22:22.360Z,51.15
2023-02-02T19:24:49.726Z,51.13
2023-02-02T19:27:21.964Z,51.23
2023-02-02T19:29:50.801Z,51.38
2023-02-02T19:32:21.725Z,51.38
2023-02-02T19:34:51.817Z,51.55
2023-02-02T19:37:21.362Z,51.68
2023-02-02T19:39:47.976Z,51.59
2023-02-02T19:42:14.548Z,51.76
2023-02-02T19:44:42.122Z,51.77
2023-02-02T19:47:23.849Z,51.85
2023-02-02T19:49:50.690Z,51.99
2023-02-02T19:52:23.130Z,51.88
2023-02-02T19:54:50.232Z,51.79
2023-02-02T19:57:21.334Z,51.80
2023-02-02T19:59:50.403Z,51.91
2023-02-02T20:02:54.423Z,51.99
2023-02-02T20:05:29.679Z,52.06
2023-02-02T20:08:21.622Z,52.22
2023-02-02T20:10:48.290Z,52.05
2023-02-02T20:13:19.988Z,52.36
2023-02-02T20:15:47.740Z,52.38
2023-02-02T20:18:27.305Z,52.52
2023-02-02T20:20:56.299Z,52.36
2023-02-02T20:23:31.885Z,52.42
2023-02-02T20:26:03.700Z,52.72
2023-02-02T20:28:41.738Z,52.63
2023-02-02T20:31:11.175Z,52.83
2023-02-02T20:33:41.920Z,52.94
2023-02-02T20:36:29.985Z,52.95
2023-02-02T20:39:01.139Z,53.09
2023-02-02T20:41:27.693Z,53.24
2023-02-02T20:43:54.483Z,53.43
2023-02-02T20:46:21.124Z,53.19
2023-02-02T20:48:49.031Z,52.97
2023-02-02T20:51:15.853Z,52.99
2023-02-02T20:53:42.751Z,53.19
2023-02-02T20:56:09.290Z,53.03
2023-02-02T20:58:35.924Z,53.38
2023-02-02T21:01:05.381Z,53.42
2023-02-02T21:03:32.659Z,54.00
2023-02-02T21:05:59.929Z,54.11
2023-02-02T21:08:26.572Z,54.20
2023-02-02T21:10:53.118Z,54.06
2023-02-02T21:13:19.628Z,54.12
2023-02-02T21:15:46.396Z,54.22
2023-02-02T21:18:12.923Z,54.40
2023-02-02T21:20:39.725Z,54.30
2023-02-02T21:23:06.326Z,54.27
2023-02-02T21:25:32.891Z,54.41
2023-02-02T21:28:00.280Z,54.47
2023-02-02T21:30:27.470Z,54.61
2023-02-02T21:32:54.324Z,54.53
2023-02-02T21:35:21.313Z,54.56
2023-02-02T21:37:54.175Z,54.64
2023-02-02T21:40:32.781Z,54.82
2023-02-02T21:43:01.307Z,54.83
2023-02-02T21:45:35.212Z,54.58
2023-02-02T21:48:06.620Z,54.88
2023-02-02T21:50:40.147Z,54.83
2023-02-02T21:53:23.377Z,55.41
2023-02-02T21:55:54.045Z,55.40
2023-02-02T21:58:26.259Z,55.57
2023-02-02T22:00:53.697Z,55.68
2023-02-02T22:03:37.531Z,56.20
2023-02-02T22:06:35.358Z,55.90
2023-02-02T22:09:17.919Z,55.38
2023-02-02T22:12:02.157Z,55.49
2023-02-02T22:14:31.550Z,55.89
2023-02-02T22:16:59.588Z,56.45
2023-02-02T22:19:37.711Z,56.24
2023-02-02T22:22:13.236Z,56.18
2023-02-02T22:24:40.134Z,56.03
2023-02-02T22:27:37.083Z,56.30
2023-02-02T22:30:29.106Z,56.39
2023-02-02T22:32:55.823Z,56.90
2023-02-02T22:35:22.498Z,57.19
2023-02-02T22:37:49.065Z,57.12
2023-02-02T22:40:16.456Z,57.18
2023-02-02T22:42:43.427Z,57.51
2023-02-02T22:45:10.832Z,57.59
2023-02-02T22:47:37.386Z,57.73
2023-02-02T22:50:04.225Z,57.74
2023-02-02T22:52:30.763Z,57.59
2023-02-02T22:54:57.356Z,57.53
2023-02-02T22:57:23.873Z,57.79
2023-02-02T22:59:50.392Z,58.08
2023-02-02T23:02:17.004Z,58.52
2023-02-02T23:04:46.673Z,58.93
2023-02-02T23:07:13.202Z,58.82
2023-02-02T23:09:39.813Z,58.77
2023-02-02T23:12:06.569Z,58.73
2023-02-02T23:14:33.323Z,58.87
2023-02-02T23:16:59.966Z,59.07
2023-02-02T23:19:26.504Z,59.60
2023-02-02T23:21:53.150Z,59.84
2023-02-02T23:24:19.679Z,59.80
2023-02-02T23:26:46.210Z,59.84
2023-02-02T23:29:12.778Z,59.89
2023-02-02T23:31:39.380Z,59.80
2023-02-02T23:34:05.979Z,59.72
2023-02-02T23:36:32.522Z,59.97
2023-02-02T23:38:59.053Z,60.03
2023-02-02T23:41:25.618Z,60.25
2023-02-02T23:43:53.031Z,60.30
2023-02-02T23:46:20.106Z,60.50
2023-02-02T23:48:47.242Z,60.40
2023-02-02T23:51:14.254Z,60.65
2023-02-02T23:53:42.339Z,60.60
2023-02-02T23:56:09.822Z,60.80
2023-02-02T23:58:36.491Z,60.68
